Pagina principale
METAR-TAF:

METAR-TAF

Aeroporti :

Messina, Italia

latitudine: 38-12N, longitudine: 015-33E, altezza: 59 m

Osservazione

Il bollettino è stato emesso 56 minuti fa, alle 15:55 UTC
Vento 7 kt da nord-ovest
Temperature 22°C
Umidità 65%
Pressione 1013 hPa
Visibilità 10 km o più
Poco nuvoloso ad un'altezza di 3000 ft, Cumulo congesto.
Nubi sparse ad un'altezza di 4000 ft

METAR: LICF 311555Z 31007KT 9999 FEW030TCU SCT040 22/15 Q1013 RMK BKN QUK 2 QUL 1 NW VIS MAR 18 KM MON LIB NC VIS MIN 9999

Ora: 18:51 (16:51 UTC)


TAF: mancante

Osservazioni e previsioni meteorologiche di più di 4000 aeroporti (messaggi METAR e TAF).

Le stazioni disponibili sono rappresentate dai dischi gialli e rossi sulla carta.

Puntare il mouse per vedere il nome della stazione.

Clicca sopra per visualizzare le osservazioni e previsioni meteorologiche.

Per cambiare la mappa : fare clic sui pulsanti verdi con una croce nera per ingrandire, il pulsante verde con un trattino per diminuire, o sulla freccia verde per le mappe adiacenti.


METAR-TAF: